< Typhoon 201515 2015 Season Typhoon 201517 >
Typhoon 201516 (ATSANI)
General InformationTrack Information on Google MapsDetailed Wind InformationForecast History on Google MapsAccess Analytics MapList of All Images || NewsDisaster Info.WeblogTrackbackTyphoon FrontTwiphoonTyphoon Now!Typhoon ImaginationDisaster Info. XMLResourceGoogle EarthGE AnimationAtom FeedGeoJSON
Detalied Best Track (Time Zone = UTC)
Year Month Day Hour Lat. Long. Pressure (hPa) Wind (kt) Class Image Chart
2015 8 14 00 14.8 163.5 1004 0 2 Image Chart
2015 8 14 06 15.0 163.0 1004 0 2 Image Chart
2015 8 14 12 15.0 162.6 1004 0 2 Image Chart
2015 8 14 18 14.8 162.4 1002 35 3 Image Chart
2015 8 15 00 14.7 162.2 1002 35 3 Image Chart
2015 8 15 06 14.8 162.0 1000 35 3 Image Chart
2015 8 15 12 14.9 161.8 998 40 3 Image Chart
2015 8 15 18 14.8 161.3 994 45 3 Image Chart
2015 8 16 00 14.4 160.9 990 45 3 Image Chart
2015 8 16 06 14.5 160.4 985 50 4 Image Chart
2015 8 16 12 14.4 160.0 980 55 4 Image Chart
2015 8 16 18 14.3 159.6 975 60 4 Image Chart
2015 8 17 00 14.5 159.1 970 65 5 Image Chart
2015 8 17 06 14.7 158.5 960 75 5 Image Chart
2015 8 17 12 15.1 158.0 950 80 5 Image Chart
2015 8 17 18 15.7 157.0 940 90 5 Image Chart
2015 8 18 00 15.9 156.2 935 95 5 Image Chart
2015 8 18 06 16.3 155.5 935 95 5 Image Chart
2015 8 18 12 17.0 154.9 930 95 5 Image Chart
2015 8 18 18 17.9 153.8 930 95 5 Image Chart
2015 8 19 00 18.7 152.9 925 100 5 Image Chart
2015 8 19 06 19.1 151.9 925 100 5 Image Chart
2015 8 19 12 19.7 151.3 925 100 5 Image Chart
2015 8 19 18 20.4 150.4 925 100 5 Image Chart
2015 8 20 00 21.2 149.5 925 100 5 Image Chart
2015 8 20 06 22.0 148.6 930 95 5 Image Chart
2015 8 20 12 22.6 147.8 930 95 5 Image Chart
2015 8 20 18 23.3 147.1 935 90 5 Image Chart
2015 8 21 00 24.1 146.5 940 90 5 Image Chart
2015 8 21 06 25.0 146.0 945 85 5 Image Chart
2015 8 21 12 25.5 145.5 945 85 5 Image Chart
2015 8 21 18 26.4 145.1 950 80 5 Image Chart
2015 8 22 00 27.0 144.9 950 80 5 Image Chart
2015 8 22 06 27.6 145.0 950 80 5 Image Chart
2015 8 22 12 28.2 145.1 950 80 5 Image Chart
2015 8 22 18 29.0 145.3 950 80 5 Image Chart
2015 8 23 00 29.5 145.5 950 80 5 Image Chart
2015 8 23 06 30.0 146.1 950 80 5 Image Chart
2015 8 23 12 30.6 146.7 955 75 5 Image Chart
2015 8 23 18 31.3 147.4 955 75 5 Image Chart
2015 8 24 00 32.0 148.1 955 75 5 Image Chart
2015 8 24 06 32.6 149.2 960 70 5 Image Chart
2015 8 24 12 32.9 150.8 965 65 5 Image Chart
2015 8 24 18 33.9 152.9 965 60 4 Image Chart
2015 8 25 00 35.6 155.7 965 60 4 Image Chart
2015 8 25 06 37.6 158.0 964 0 6 Image Chart
2015 8 25 12 39.0 159.3 958 0 6 Image Chart
2015 8 25 18 39.4 161.1 960 0 6 Image Chart
2015 8 26 00 39.5 162.4 964 0 6 Image Chart
2015 8 26 06 40.0 163.6 968 0 6 Image Chart
2015 8 26 12 40.5 164.1 970 0 6 Image Chart
2015 8 26 18 40.6 164.1 972 0 6 Image Chart
2015 8 27 00 40.5 164.0 976 0 6 Image Chart
2015 8 27 06 40.4 164.1 978 0 6 Image Chart
2015 8 27 12 40.3 164.3 980 0 6 Image Chart
2015 8 27 18 40.1 164.6 980 0 6 Image Chart
2015 8 28 00 40.2 164.8 984 0 6 Image Chart
2015 8 28 06 40.8 165.3 988 0 6 Image Chart
2015 8 28 12 41.9 165.9 990 0 6 Image Chart
2015 8 28 18 43.5 166.5 992 0 6 Image Chart
2015 8 29 00 45.4 167.6 996 0 6 Image Chart
2015 8 29 06 47.7 168.7 996 0 6 Image Chart
Japan Meteorological Agency Best Track Data | Correction Date : 2015-10-08
< Typhoon 201515 2015 Season Typhoon 201517 >

Help